createdAt,value
2023-05-09T00:03:07.490Z,66.45
2023-05-09T00:08:08.739Z,66.59
2023-05-09T00:13:10.081Z,66.36
2023-05-09T00:18:11.385Z,65.90
2023-05-09T00:23:12.675Z,66.36
2023-05-09T00:28:13.969Z,66.47
2023-05-09T00:33:15.185Z,66.32
2023-05-09T00:38:16.488Z,67.16
2023-05-09T00:43:17.741Z,67.61
2023-05-09T00:48:19.024Z,67.74
2023-05-09T00:53:20.753Z,69.34
2023-05-09T00:58:21.985Z,69.98
2023-05-09T01:03:23.344Z,69.03
2023-05-09T01:08:24.743Z,68.75
2023-05-09T01:13:26.027Z,68.34
2023-05-09T01:18:27.274Z,68.41
2023-05-09T01:23:28.554Z,68.69
2023-05-09T01:28:29.766Z,69.11
2023-05-09T01:33:31.441Z,68.50
2023-05-09T01:38:32.649Z,68.48
2023-05-09T01:43:33.919Z,68.71
2023-05-09T01:48:35.243Z,68.15
2023-05-09T01:53:36.605Z,68.06
2023-05-09T01:58:37.883Z,68.39
2023-05-09T02:03:39.192Z,68.97
2023-05-09T02:08:41.072Z,69.08
2023-05-09T02:13:42.321Z,68.65
2023-05-09T02:18:43.583Z,68.98
2023-05-09T02:23:45.048Z,69.13
2023-05-09T02:28:46.442Z,67.69
2023-05-09T02:33:51.347Z,68.26
2023-05-09T02:38:52.634Z,68.36
2023-05-09T02:43:53.931Z,67.75
2023-05-09T02:48:55.221Z,67.70
2023-05-09T02:53:56.848Z,67.65
2023-05-09T02:58:58.118Z,68.13
2023-05-09T03:03:59.417Z,68.72
2023-05-09T03:09:00.845Z,68.27
2023-05-09T03:14:02.099Z,68.31
2023-05-09T03:19:03.324Z,68.48
2023-05-09T03:24:07.738Z,67.98
2023-05-09T03:29:09.041Z,67.85
2023-05-09T03:34:15.070Z,68.50
2023-05-09T03:39:16.555Z,68.20
2023-05-09T03:44:18.011Z,67.08
2023-05-09T03:49:19.228Z,66.21
2023-05-09T03:54:20.644Z,64.99
2023-05-09T03:59:21.944Z,64.67
2023-05-09T04:04:23.172Z,63.15
2023-05-09T04:09:24.432Z,63.17
2023-05-09T04:14:25.778Z,60.83
2023-05-09T04:19:27.066Z,60.78
2023-05-09T04:24:28.343Z,60.17
2023-05-09T04:29:29.579Z,60.98
2023-05-09T04:34:31.685Z,59.38
2023-05-09T04:39:32.898Z,59.02
2023-05-09T04:44:35.760Z,58.75
2023-05-09T04:49:36.974Z,58.41
2023-05-09T04:54:38.165Z,61.05
2023-05-09T04:59:39.437Z,58.67
2023-05-09T05:04:40.796Z,57.26
2023-05-09T05:09:42.085Z,57.88
2023-05-09T05:14:43.308Z,57.66
2023-05-09T05:19:44.790Z,58.80
2023-05-09T05:24:46.049Z,59.47
2023-05-09T05:29:47.296Z,58.31
2023-05-09T05:34:48.547Z,58.71
2023-05-09T05:39:51.521Z,57.29
2023-05-09T05:44:53.043Z,57.86
2023-05-09T05:49:54.339Z,54.72
2023-05-09T05:54:55.751Z,52.29
2023-05-09T05:59:57.401Z,53.55
2023-05-09T06:04:58.663Z,54.35
2023-05-09T06:09:59.942Z,53.32
2023-05-09T06:15:01.314Z,52.67
2023-05-09T06:20:02.572Z,52.02
2023-05-09T06:25:03.940Z,52.29
2023-05-09T06:30:14.209Z,50.91
2023-05-09T06:35:19.261Z,50.60
2023-05-09T06:40:20.647Z,49.47
2023-05-09T06:45:22.046Z,48.57
2023-05-09T06:50:23.363Z,49.23
2023-05-09T06:55:24.636Z,48.42
2023-05-09T07:00:25.870Z,50.78
2023-05-09T07:05:27.201Z,49.28
2023-05-09T07:10:28.741Z,48.23
2023-05-09T07:15:40.394Z,47.22
2023-05-09T07:20:43.621Z,46.90
2023-05-09T07:25:45.461Z,48.63
2023-05-09T07:30:46.891Z,46.91
2023-05-09T07:35:48.168Z,46.21
2023-05-09T07:40:49.415Z,46.01
2023-05-09T07:45:50.890Z,46.24
2023-05-09T07:50:52.210Z,46.13
2023-05-09T07:55:53.952Z,46.81
2023-05-09T08:00:55.382Z,45.46
2023-05-09T08:05:56.754Z,47.25
2023-05-09T08:10:58.089Z,45.49
2023-05-09T08:16:01.141Z,44.58
2023-05-09T08:21:02.705Z,44.29
2023-05-09T08:26:04.049Z,43.82
2023-05-09T08:31:05.355Z,44.37
2023-05-09T08:36:06.708Z,44.93
2023-05-09T08:41:07.998Z,44.98
2023-05-09T08:46:09.400Z,43.58
2023-05-09T08:51:12.109Z,44.17
2023-05-09T08:56:13.438Z,44.00
2023-05-09T09:01:14.734Z,41.19
2023-05-09T09:06:16.134Z,40.13
2023-05-09T09:11:17.424Z,39.01
2023-05-09T09:16:20.094Z,40.68
2023-05-09T09:21:21.546Z,40.43
2023-05-09T09:26:22.984Z,41.13
2023-05-09T09:31:24.404Z,40.38
2023-05-09T09:36:25.819Z,39.63
2023-05-09T09:41:27.278Z,37.84
2023-05-09T09:46:28.622Z,39.61
2023-05-09T09:51:30.022Z,41.25
2023-05-09T09:56:31.347Z,36.91
2023-05-09T10:01:32.651Z,34.72
2023-05-09T10:06:33.997Z,34.61
2023-05-09T10:11:35.420Z,35.84
2023-05-09T10:16:43.616Z,33.79
2023-05-09T10:21:45.893Z,34.85
2023-05-09T10:26:47.207Z,32.40
2023-05-09T10:31:48.789Z,33.15
2023-05-09T10:36:50.116Z,34.87
2023-05-09T10:41:51.442Z,33.80
2023-05-09T10:46:52.788Z,34.33
2023-05-09T10:51:54.151Z,33.92
2023-05-09T10:56:56.098Z,36.59
2023-05-09T11:02:00.942Z,35.51
2023-05-09T11:07:02.444Z,35.33
2023-05-09T11:12:03.715Z,35.91
2023-05-09T11:17:04.998Z,37.91
2023-05-09T11:22:06.973Z,38.18
2023-05-09T11:27:08.307Z,36.76
2023-05-09T11:32:09.735Z,36.32
2023-05-09T11:37:11.377Z,35.86
2023-05-09T11:42:12.626Z,35.12
2023-05-09T11:47:13.998Z,35.36
2023-05-09T11:52:15.273Z,37.06
2023-05-09T11:57:19.708Z,35.74
2023-05-09T12:02:22.495Z,36.34
2023-05-09T12:07:23.808Z,34.80
2023-05-09T12:12:25.230Z,34.61
2023-05-09T12:17:26.581Z,33.71
2023-05-09T12:22:29.197Z,34.85
2023-05-09T12:27:32.083Z,36.53
2023-05-09T12:32:33.388Z,35.05
2023-05-09T12:37:34.731Z,35.26
2023-05-09T12:42:35.986Z,35.49
2023-05-09T12:47:38.878Z,33.44
2023-05-09T12:52:50.760Z,34.95
2023-05-09T12:57:55.724Z,35.96
2023-05-09T13:02:57.207Z,35.34
2023-05-09T13:07:58.627Z,34.06
2023-05-09T13:12:59.873Z,36.51
2023-05-09T13:18:01.211Z,35.09
2023-05-09T13:23:02.504Z,32.92
2023-05-09T13:28:04.826Z,34.35
2023-05-09T13:33:23.738Z,34.34
2023-05-09T13:38:26.275Z,34.61
2023-05-09T13:43:27.555Z,33.15
2023-05-09T13:48:28.904Z,33.99
2023-05-09T13:53:30.173Z,34.16
2023-05-09T13:58:31.541Z,32.47
2023-05-09T14:03:32.984Z,33.52
2023-05-09T14:08:34.528Z,32.70
2023-05-09T14:13:35.752Z,32.16
2023-05-09T14:18:37.054Z,32.72
2023-05-09T14:23:38.273Z,34.71
2023-05-09T14:28:39.629Z,31.55
2023-05-09T14:33:41.033Z,30.38
2023-05-09T14:38:43.284Z,30.33
2023-05-09T14:43:44.561Z,30.96
2023-05-09T14:48:45.907Z,30.97
2023-05-09T14:53:47.270Z,28.47
2023-05-09T14:58:48.555Z,31.11
2023-05-09T15:03:49.835Z,28.91
2023-05-09T15:08:51.097Z,28.09
2023-05-09T15:13:52.379Z,28.00
2023-05-09T15:18:53.593Z,28.29
2023-05-09T15:23:54.813Z,29.52
2023-05-09T15:28:56.087Z,28.24
2023-05-09T15:33:57.338Z,26.98
2023-05-09T15:38:58.995Z,28.74
2023-05-09T15:44:00.252Z,29.07
2023-05-09T15:49:01.478Z,28.25
2023-05-09T15:54:02.774Z,27.76
2023-05-09T15:59:04.117Z,28.20
2023-05-09T16:04:05.880Z,28.15
2023-05-09T16:09:07.162Z,27.79
2023-05-09T16:14:11.373Z,28.81
2023-05-09T16:19:12.958Z,29.46
2023-05-09T16:24:16.532Z,30.38
2023-05-09T16:29:17.752Z,29.89
2023-05-09T16:34:19.063Z,30.61
2023-05-09T16:39:20.918Z,30.25
2023-05-09T16:44:22.274Z,31.33
2023-05-09T16:49:23.524Z,31.99
2023-05-09T16:54:24.896Z,29.85
2023-05-09T16:59:26.808Z,29.80
2023-05-09T17:04:28.291Z,30.39
2023-05-09T17:09:30.703Z,30.83
2023-05-09T17:14:32.024Z,32.23
2023-05-09T17:19:34.752Z,33.16
2023-05-09T17:24:36.177Z,33.97
2023-05-09T17:29:37.476Z,34.60
2023-05-09T17:34:39.014Z,35.23
2023-05-09T17:39:42.990Z,35.31
2023-05-09T17:44:44.608Z,35.99
2023-05-09T17:49:46.057Z,36.27
2023-05-09T17:54:47.589Z,36.12
2023-05-09T17:59:49.058Z,37.30
2023-05-09T18:04:50.359Z,37.25
2023-05-09T18:09:51.625Z,40.04
2023-05-09T18:14:53.352Z,41.06
2023-05-09T18:19:54.652Z,40.00
2023-05-09T18:24:56.116Z,43.92
2023-05-09T18:29:57.359Z,45.10
2023-05-09T18:34:58.677Z,44.61
2023-05-09T18:39:59.971Z,43.45
2023-05-09T18:45:04.214Z,44.83
2023-05-09T18:50:05.610Z,45.45
2023-05-09T18:55:07.133Z,44.23
2023-05-09T19:00:08.488Z,45.91
2023-05-09T19:05:10.731Z,48.08
2023-05-09T19:10:13.147Z,49.80
2023-05-09T19:15:14.531Z,50.23
2023-05-09T19:20:16.005Z,49.88
2023-05-09T19:25:17.712Z,50.11
2023-05-09T19:30:19.517Z,49.12
2023-05-09T19:35:26.165Z,50.03
2023-05-09T19:40:27.401Z,50.53
2023-05-09T19:45:28.621Z,50.69
2023-05-09T19:50:30.993Z,51.41
2023-05-09T19:55:32.267Z,52.00
2023-05-09T20:00:35.937Z,54.20
2023-05-09T20:05:37.293Z,54.85
2023-05-09T20:10:38.561Z,55.47
2023-05-09T20:15:39.795Z,56.18
2023-05-09T20:20:41.180Z,55.75
2023-05-09T20:25:42.454Z,55.37
2023-05-09T20:30:43.841Z,54.98
2023-05-09T20:35:45.154Z,55.79
2023-05-09T20:40:47.081Z,56.39
2023-05-09T20:45:48.746Z,56.25
2023-05-09T20:50:50.024Z,56.61
2023-05-09T20:55:51.436Z,56.68
2023-05-09T21:00:52.749Z,57.92
2023-05-09T21:05:53.983Z,58.88
2023-05-09T21:10:55.347Z,57.50
2023-05-09T21:15:56.688Z,57.78
2023-05-09T21:20:57.914Z,57.77
2023-05-09T21:25:59.167Z,55.68
2023-05-09T21:31:01.611Z,54.81
2023-05-09T21:36:02.948Z,54.35
2023-05-09T21:41:04.224Z,53.72
2023-05-09T21:46:05.985Z,52.29
2023-05-09T21:51:08.326Z,50.86
2023-05-09T21:56:09.624Z,50.50
2023-05-09T22:01:10.959Z,50.47
2023-05-09T22:06:13.528Z,51.19
2023-05-09T22:11:15.282Z,51.32
2023-05-09T22:16:17.731Z,50.17
2023-05-09T22:21:19.049Z,51.80
2023-05-09T22:26:21.133Z,48.34
2023-05-09T22:31:22.753Z,47.59
2023-05-09T22:36:24.065Z,49.22
2023-05-09T22:41:25.377Z,48.60
2023-05-09T22:46:26.648Z,47.46
2023-05-09T22:51:27.930Z,48.67
2023-05-09T22:56:29.282Z,48.75
2023-05-09T23:01:31.185Z,48.33
2023-05-09T23:06:33.758Z,48.45
2023-05-09T23:11:35.011Z,49.02
2023-05-09T23:16:36.273Z,50.03
2023-05-09T23:21:37.504Z,52.84
2023-05-09T23:26:38.816Z,53.69
2023-05-09T23:31:40.170Z,53.43
2023-05-09T23:36:41.489Z,52.99
2023-05-09T23:41:42.696Z,53.68
2023-05-09T23:46:44.016Z,53.94
2023-05-09T23:51:45.301Z,54.60
2023-05-09T23:56:47.734Z,54.11
